createdAt,value
2023-05-15T00:00:12.280Z,13
2023-05-15T00:01:19.445Z,11
2023-05-15T00:02:26.269Z,11
2023-05-15T00:03:33.043Z,12
2023-05-15T00:04:39.790Z,13
2023-05-15T00:05:56.870Z,11
2023-05-15T00:07:03.529Z,12
2023-05-15T00:08:17.368Z,13
2023-05-15T00:09:24.194Z,13
2023-05-15T00:10:31.045Z,12
2023-05-15T00:11:37.843Z,13
2023-05-15T00:12:45.571Z,12
2023-05-15T00:13:52.387Z,12
2023-05-15T00:14:59.209Z,12
2023-05-15T00:16:08.548Z,13
2023-05-15T00:17:15.303Z,12
2023-05-15T00:18:23.228Z,14
2023-05-15T00:19:34.880Z,12
2023-05-15T00:20:41.757Z,12
2023-05-15T00:21:48.719Z,11
2023-05-15T00:22:57.461Z,12
2023-05-15T00:24:07.334Z,11
2023-05-15T00:25:14.190Z,12
2023-05-15T00:26:39.740Z,11
2023-05-15T00:27:46.557Z,13
2023-05-15T00:28:53.388Z,11
2023-05-15T00:30:30.418Z,11
2023-05-15T00:31:37.283Z,12
2023-05-15T00:32:44.165Z,12
2023-05-15T00:33:50.960Z,11
2023-05-15T00:34:57.826Z,13
2023-05-15T00:36:04.677Z,13
2023-05-15T00:37:11.806Z,10
2023-05-15T00:38:18.724Z,12
2023-05-15T00:39:25.481Z,13
2023-05-15T00:40:35.581Z,13
2023-05-15T00:41:42.379Z,11
2023-05-15T00:42:49.194Z,12
2023-05-15T00:43:56.169Z,11
2023-05-15T00:45:03.005Z,11
2023-05-15T00:46:10.146Z,10
2023-05-15T00:47:47.134Z,10
2023-05-15T00:48:53.820Z,10
2023-05-15T00:50:00.674Z,10
2023-05-15T00:51:07.740Z,11
2023-05-15T00:52:14.599Z,10
2023-05-15T00:53:21.405Z,10
2023-05-15T00:54:28.270Z,10
2023-05-15T00:56:11.222Z,10
2023-05-15T00:57:18.070Z,11
2023-05-15T00:58:24.942Z,9
2023-05-15T00:59:31.881Z,9
2023-05-15T01:00:38.693Z,10
2023-05-15T01:01:45.422Z,9
2023-05-15T01:02:52.246Z,9
2023-05-15T01:04:05.936Z,9
2023-05-15T01:05:12.728Z,10
2023-05-15T01:06:19.603Z,8
2023-05-15T01:07:33.318Z,9
2023-05-15T01:08:40.104Z,9
2023-05-15T01:09:49.537Z,9
2023-05-15T01:11:15.732Z,9
2023-05-15T01:12:24.830Z,7
2023-05-15T01:13:34.623Z,8
2023-05-15T01:14:41.430Z,9
2023-05-15T01:15:48.237Z,9
2023-05-15T01:16:58.671Z,7
2023-05-15T01:18:05.510Z,8
2023-05-15T01:19:12.376Z,9
2023-05-15T01:20:19.084Z,7
2023-05-15T01:21:25.897Z,7
2023-05-15T01:22:37.770Z,10
2023-05-15T01:24:24.413Z,10
2023-05-15T01:25:39.685Z,9
2023-05-15T01:26:57.353Z,8
2023-05-15T01:28:09.227Z,8
2023-05-15T01:29:16.074Z,6
2023-05-15T01:30:36.642Z,6
2023-05-15T01:31:43.522Z,7
2023-05-15T01:32:50.335Z,6
2023-05-15T01:33:57.164Z,6
2023-05-15T01:35:07.324Z,7
2023-05-15T01:36:20.637Z,8
2023-05-15T01:37:27.467Z,6
2023-05-15T01:38:34.372Z,6
2023-05-15T01:39:41.243Z,5
2023-05-15T01:40:48.048Z,6
2023-05-15T01:41:54.830Z,6
2023-05-15T01:43:01.639Z,6
2023-05-15T01:44:12.054Z,8
2023-05-15T01:45:21.398Z,6
2023-05-15T01:46:31.024Z,7
2023-05-15T01:47:42.437Z,6
2023-05-15T01:48:55.111Z,7
2023-05-15T01:50:40.773Z,7
2023-05-15T01:51:47.778Z,6
2023-05-15T01:52:54.570Z,5
2023-05-15T01:54:01.401Z,6
2023-05-15T01:55:19.674Z,5
2023-05-15T01:56:40.086Z,6
2023-05-15T01:58:04.624Z,6
2023-05-15T01:59:11.533Z,7
2023-05-15T02:00:41.095Z,7
2023-05-15T02:01:47.959Z,6
2023-05-15T02:02:54.897Z,6
2023-05-15T02:04:01.624Z,6
2023-05-15T02:05:08.284Z,7
2023-05-15T02:06:20.003Z,5
2023-05-15T02:07:26.945Z,5
2023-05-15T02:08:33.797Z,7
2023-05-15T02:09:40.594Z,5
2023-05-15T02:10:53.293Z,10
2023-05-15T02:12:00.210Z,6
2023-05-15T02:13:07.254Z,6
2023-05-15T02:14:14.054Z,6
2023-05-15T02:15:20.966Z,6
2023-05-15T02:16:27.803Z,8
2023-05-15T02:17:34.529Z,7
2023-05-15T02:18:41.504Z,7
2023-05-15T02:19:48.135Z,6
2023-05-15T02:20:54.916Z,7
2023-05-15T02:22:09.566Z,6
2023-05-15T02:23:16.416Z,6
2023-05-15T02:24:23.216Z,7
2023-05-15T02:25:30.152Z,7
2023-05-15T02:26:44.713Z,7
2023-05-15T02:27:59.288Z,6
2023-05-15T02:29:06.183Z,6
2023-05-15T02:30:13.070Z,6
2023-05-15T02:31:30.038Z,7
2023-05-15T02:32:41.908Z,7
2023-05-15T02:33:53.738Z,7
2023-05-15T02:35:06.753Z,9
2023-05-15T02:36:26.621Z,7
2023-05-15T02:37:36.135Z,7
2023-05-15T02:38:45.736Z,6
2023-05-15T02:39:52.627Z,8
2023-05-15T02:41:02.428Z,6
2023-05-15T02:42:09.280Z,6
2023-05-15T02:43:16.234Z,7
2023-05-15T02:44:23.027Z,8
2023-05-15T02:45:29.911Z,7
2023-05-15T02:46:36.637Z,7
2023-05-15T02:47:43.477Z,6
2023-05-15T02:48:50.328Z,9
2023-05-15T02:50:00.171Z,8
2023-05-15T02:51:07.174Z,9
2023-05-15T02:52:14.832Z,8
2023-05-15T02:53:21.677Z,9
2023-05-15T02:54:28.508Z,7
2023-05-15T02:55:35.450Z,7
2023-05-15T02:56:42.421Z,7
2023-05-15T02:57:49.085Z,7
2023-05-15T02:58:55.904Z,7
2023-05-15T03:00:02.869Z,6
2023-05-15T03:01:10.159Z,6
2023-05-15T03:02:17.043Z,7
2023-05-15T03:03:23.686Z,6
2023-05-15T03:04:30.496Z,6
2023-05-15T03:05:42.220Z,7
2023-05-15T03:06:50.126Z,7
2023-05-15T03:07:56.918Z,7
2023-05-15T03:09:03.799Z,6
2023-05-15T03:10:10.663Z,7
2023-05-15T03:11:17.531Z,6
2023-05-15T03:12:24.346Z,6
2023-05-15T03:13:31.401Z,7
2023-05-15T03:14:38.312Z,6
2023-05-15T03:15:45.106Z,8
2023-05-15T03:16:51.977Z,7
2023-05-15T03:18:04.706Z,7
2023-05-15T03:19:32.179Z,7
2023-05-15T03:20:39.031Z,6
2023-05-15T03:21:57.659Z,7
2023-05-15T03:23:06.463Z,6
2023-05-15T03:24:13.300Z,6
2023-05-15T03:25:20.131Z,6
2023-05-15T03:26:26.920Z,8
2023-05-15T03:27:35.882Z,8
2023-05-15T03:28:42.668Z,6
2023-05-15T03:29:59.285Z,6
2023-05-15T03:31:49.116Z,6
2023-05-15T03:32:55.824Z,8
2023-05-15T03:34:02.723Z,6
2023-05-15T03:35:09.534Z,8
2023-05-15T03:36:16.471Z,7
2023-05-15T03:37:23.300Z,8
2023-05-15T03:38:44.715Z,7
2023-05-15T03:39:51.602Z,6
2023-05-15T03:40:58.428Z,7
2023-05-15T03:42:05.496Z,7
2023-05-15T03:43:12.368Z,7
2023-05-15T03:44:19.215Z,7
2023-05-15T03:45:26.299Z,7
2023-05-15T03:46:32.809Z,7
2023-05-15T03:47:39.741Z,6
2023-05-15T03:48:46.500Z,8
2023-05-15T03:50:10.902Z,8
2023-05-15T03:51:17.750Z,7
2023-05-15T03:52:24.569Z,7
2023-05-15T03:53:31.508Z,7
2023-05-15T03:54:38.371Z,7
2023-05-15T03:55:45.187Z,6
2023-05-15T03:56:52.020Z,7
2023-05-15T03:57:58.840Z,6
2023-05-15T03:59:09.012Z,6
2023-05-15T04:00:17.065Z,6
2023-05-15T04:01:22.970Z,6
2023-05-15T04:02:29.827Z,7
2023-05-15T04:03:36.590Z,7
2023-05-15T04:04:43.468Z,6
2023-05-15T04:05:50.324Z,5
2023-05-15T04:06:57.067Z,7
2023-05-15T04:08:03.898Z,8
2023-05-15T04:09:15.644Z,8
2023-05-15T04:10:22.525Z,5
2023-05-15T04:11:29.833Z,6
2023-05-15T04:12:36.719Z,7
2023-05-15T04:13:48.560Z,8
2023-05-15T04:14:55.435Z,8
2023-05-15T04:16:02.269Z,10
2023-05-15T04:17:09.312Z,8
2023-05-15T04:18:18.568Z,7
2023-05-15T04:19:27.242Z,7
2023-05-15T04:20:43.792Z,7
2023-05-15T04:21:52.827Z,7
2023-05-15T04:22:59.619Z,6
2023-05-15T04:24:06.402Z,7
2023-05-15T04:25:18.187Z,8
2023-05-15T04:26:25.118Z,8
2023-05-15T04:27:31.889Z,6
2023-05-15T04:29:18.515Z,6
2023-05-15T04:30:25.418Z,7
2023-05-15T04:31:32.362Z,7
2023-05-15T04:32:39.141Z,7
2023-05-15T04:33:49.335Z,7
2023-05-15T04:34:56.525Z,7
2023-05-15T04:36:03.347Z,7
2023-05-15T04:37:10.525Z,8
2023-05-15T04:38:17.381Z,7
2023-05-15T04:39:24.190Z,7
2023-05-15T04:40:31.915Z,8
2023-05-15T04:41:59.240Z,8
2023-05-15T04:43:25.725Z,8
2023-05-15T04:44:32.541Z,7
2023-05-15T04:45:39.431Z,7
2023-05-15T04:46:46.234Z,9
2023-05-15T04:48:15.175Z,9
2023-05-15T04:49:22.014Z,6
2023-05-15T04:50:52.298Z,6
2023-05-15T04:51:59.302Z,6
2023-05-15T04:53:06.184Z,6
2023-05-15T04:54:24.794Z,6
2023-05-15T04:55:31.766Z,7
2023-05-15T04:57:31.848Z,7
2023-05-15T04:58:40.716Z,6
2023-05-15T04:59:47.498Z,5
2023-05-15T05:00:54.406Z,6
2023-05-15T05:02:01.305Z,7
2023-05-15T05:03:08.068Z,6
2023-05-15T05:04:14.937Z,6
2023-05-15T05:05:24.818Z,7
2023-05-15T05:06:31.449Z,6
2023-05-15T05:07:38.157Z,8
2023-05-15T05:08:44.921Z,7
2023-05-15T05:09:51.702Z,6
2023-05-15T05:10:58.499Z,6
2023-05-15T05:12:05.318Z,5
2023-05-15T05:13:12.145Z,6
2023-05-15T05:14:18.942Z,6
2023-05-15T05:15:26.098Z,6
2023-05-15T05:16:32.838Z,7
2023-05-15T05:17:39.687Z,6
2023-05-15T05:18:46.519Z,6
2023-05-15T05:19:53.346Z,5
2023-05-15T05:21:00.123Z,6
2023-05-15T05:22:13.844Z,6
2023-05-15T05:23:20.679Z,6
2023-05-15T05:24:27.619Z,6
2023-05-15T05:25:34.583Z,5
2023-05-15T05:26:42.755Z,7
2023-05-15T05:27:50.391Z,8
2023-05-15T05:28:57.225Z,6
2023-05-15T05:30:04.017Z,5
2023-05-15T05:31:11.250Z,6
2023-05-15T05:32:56.887Z,6
2023-05-15T05:34:03.653Z,6
2023-05-15T05:35:10.458Z,5
2023-05-15T05:36:17.333Z,6
2023-05-15T05:37:24.106Z,6
2023-05-15T05:38:30.810Z,6
2023-05-15T05:39:37.525Z,5
2023-05-15T05:40:44.477Z,6
2023-05-15T05:41:51.350Z,6
2023-05-15T05:42:58.056Z,5
2023-05-15T05:44:04.884Z,6
2023-05-15T05:45:11.717Z,5
2023-05-15T05:46:18.869Z,5
2023-05-15T05:47:25.722Z,5
2023-05-15T05:48:32.640Z,5
2023-05-15T05:49:39.356Z,5
2023-05-15T05:50:46.216Z,5
2023-05-15T05:51:54.070Z,5
2023-05-15T05:53:01.009Z,6
2023-05-15T05:54:07.858Z,6
2023-05-15T05:55:14.656Z,5
2023-05-15T05:56:21.367Z,5
2023-05-15T05:57:28.183Z,5
2023-05-15T05:58:35.151Z,5
2023-05-15T05:59:42.069Z,6
2023-05-15T06:00:48.862Z,5
2023-05-15T06:01:55.639Z,7
2023-05-15T06:03:02.622Z,5
2023-05-15T06:04:09.722Z,6
2023-05-15T06:05:16.169Z,6
2023-05-15T06:06:31.955Z,6
2023-05-15T06:07:38.803Z,5
2023-05-15T06:08:54.245Z,6
2023-05-15T06:09:59.363Z,6
2023-05-15T06:11:06.218Z,4
2023-05-15T06:12:13.023Z,5
2023-05-15T06:13:26.160Z,6
2023-05-15T06:14:33.028Z,5
2023-05-15T06:15:39.781Z,5
2023-05-15T06:16:46.743Z,6
2023-05-15T06:17:53.583Z,4
2023-05-15T06:19:00.746Z,5
2023-05-15T06:20:07.774Z,4
2023-05-15T06:21:24.430Z,5
2023-05-15T06:22:31.191Z,5
2023-05-15T06:23:40.883Z,4
2023-05-15T06:25:06.466Z,4
2023-05-15T06:26:16.310Z,5
2023-05-15T06:27:58.192Z,5
2023-05-15T06:29:05.082Z,6
2023-05-15T06:30:16.876Z,5
2023-05-15T06:31:23.848Z,5
2023-05-15T06:32:31.556Z,6
2023-05-15T06:33:47.149Z,5
2023-05-15T06:34:54.172Z,5
2023-05-15T06:36:01.183Z,5
2023-05-15T06:37:08.118Z,5
2023-05-15T06:38:14.949Z,5
2023-05-15T06:39:21.762Z,8
2023-05-15T06:40:49.091Z,8
2023-05-15T06:41:56.014Z,7
2023-05-15T06:43:02.823Z,5
2023-05-15T06:44:37.478Z,5
2023-05-15T06:45:42.740Z,5
2023-05-15T06:46:48.049Z,5
2023-05-15T06:47:52.794Z,5
2023-05-15T06:49:00.768Z,5
2023-05-15T06:50:07.632Z,6
2023-05-15T06:51:15.947Z,7
2023-05-15T06:52:22.734Z,8
2023-05-15T06:53:29.652Z,6
2023-05-15T06:54:47.121Z,8
2023-05-15T06:55:54.813Z,5
2023-05-15T06:57:01.705Z,7
2023-05-15T06:58:30.947Z,7
2023-05-15T06:59:37.829Z,8
2023-05-15T07:00:44.860Z,8
2023-05-15T07:01:51.766Z,9
2023-05-15T07:02:58.562Z,8
2023-05-15T07:04:06.501Z,7
2023-05-15T07:05:13.990Z,6
2023-05-15T07:06:20.875Z,6
2023-05-15T07:07:28.958Z,5
2023-05-15T07:08:36.979Z,5
2023-05-15T07:09:43.863Z,4
2023-05-15T07:10:50.722Z,5
2023-05-15T07:11:57.675Z,6
2023-05-15T07:13:04.614Z,7
2023-05-15T07:14:17.368Z,6
2023-05-15T07:15:24.269Z,6
2023-05-15T07:16:31.617Z,8
2023-05-15T07:17:40.235Z,6
2023-05-15T07:18:47.380Z,6
2023-05-15T07:19:54.086Z,6
2023-05-15T07:21:00.924Z,6
2023-05-15T07:22:07.982Z,6
2023-05-15T07:23:45.891Z,6
2023-05-15T07:24:52.766Z,6
2023-05-15T07:25:59.626Z,10
2023-05-15T07:27:06.505Z,5
2023-05-15T07:28:13.325Z,10
2023-05-15T07:29:20.128Z,7
2023-05-15T07:30:27.337Z,6
2023-05-15T07:31:36.057Z,6
2023-05-15T07:32:42.879Z,11
2023-05-15T07:33:49.764Z,9
2023-05-15T07:35:03.505Z,10
2023-05-15T07:36:10.480Z,11
2023-05-15T07:37:17.384Z,11
2023-05-15T07:38:28.072Z,12
2023-05-15T07:39:34.900Z,10
2023-05-15T07:40:42.727Z,10
2023-05-15T07:41:49.615Z,9
2023-05-15T07:42:56.602Z,8
2023-05-15T07:44:03.494Z,9
2023-05-15T07:45:10.805Z,8
2023-05-15T07:46:17.665Z,8
2023-05-15T07:47:24.524Z,9
2023-05-15T07:48:31.343Z,10
2023-05-15T07:49:38.139Z,8
2023-05-15T07:50:44.995Z,11
2023-05-15T07:51:51.735Z,9
2023-05-15T07:52:58.601Z,9
2023-05-15T07:54:05.484Z,9
2023-05-15T07:55:12.180Z,11
2023-05-15T07:56:19.036Z,10
2023-05-15T07:57:25.841Z,13
2023-05-15T07:58:32.673Z,11
2023-05-15T07:59:39.612Z,11
2023-05-15T08:00:46.433Z,11
2023-05-15T08:01:53.223Z,10
2023-05-15T08:03:00.139Z,12
2023-05-15T08:04:06.955Z,11
2023-05-15T08:06:09.225Z,11
2023-05-15T08:07:16.091Z,10
2023-05-15T08:08:48.234Z,10
2023-05-15T08:09:55.119Z,8
2023-05-15T08:11:01.937Z,8
2023-05-15T08:12:08.787Z,11
2023-05-15T08:13:18.589Z,10
2023-05-15T08:14:25.552Z,10
2023-05-15T08:15:32.442Z,10
2023-05-15T08:16:39.260Z,10
2023-05-15T08:17:46.060Z,8
2023-05-15T08:18:52.914Z,10
2023-05-15T08:19:59.643Z,9
2023-05-15T08:21:06.637Z,9
2023-05-15T08:22:13.470Z,6
2023-05-15T08:23:20.184Z,6
2023-05-15T08:24:27.046Z,8
2023-05-15T08:25:36.747Z,9
2023-05-15T08:26:43.559Z,7
2023-05-15T08:27:50.298Z,8
2023-05-15T08:28:57.092Z,10
2023-05-15T08:30:11.610Z,9
2023-05-15T08:31:18.528Z,7
2023-05-15T08:32:25.559Z,7
2023-05-15T08:33:32.427Z,6
2023-05-15T08:34:39.306Z,8
2023-05-15T08:35:46.104Z,6
2023-05-15T08:36:52.851Z,6
2023-05-15T08:38:00.656Z,7
2023-05-15T08:39:07.518Z,6
2023-05-15T08:40:14.456Z,5
2023-05-15T08:41:29.093Z,5
2023-05-15T08:42:32.786Z,5
2023-05-15T08:43:42.888Z,6
2023-05-15T08:44:49.809Z,5
2023-05-15T08:45:56.560Z,6
2023-05-15T08:47:03.428Z,5
2023-05-15T08:48:13.024Z,5
2023-05-15T08:49:30.529Z,7
2023-05-15T08:50:42.507Z,5
2023-05-15T08:51:49.298Z,6
2023-05-15T08:52:57.003Z,6
2023-05-15T08:54:03.862Z,7
2023-05-15T08:55:10.712Z,8
2023-05-15T08:56:17.485Z,8
2023-05-15T08:57:24.174Z,8
2023-05-15T08:58:32.100Z,10
2023-05-15T08:59:38.964Z,10
2023-05-15T09:00:45.763Z,10
2023-05-15T09:01:52.576Z,8
2023-05-15T09:02:59.414Z,10
2023-05-15T09:04:06.170Z,8
2023-05-15T09:05:12.938Z,7
2023-05-15T09:06:19.778Z,9
2023-05-15T09:07:26.578Z,9
2023-05-15T09:08:33.259Z,7
2023-05-15T09:09:40.096Z,7
2023-05-15T09:10:49.573Z,7
2023-05-15T09:11:56.535Z,8
2023-05-15T09:13:03.288Z,8
2023-05-15T09:14:09.993Z,9
2023-05-15T09:15:16.782Z,8
2023-05-15T09:16:26.261Z,8
2023-05-15T09:17:33.110Z,8
2023-05-15T09:18:39.823Z,8
2023-05-15T09:19:46.616Z,7
2023-05-15T09:20:55.459Z,7
2023-05-15T09:22:00.218Z,8
2023-05-15T09:23:17.084Z,7
2023-05-15T09:24:26.674Z,7
2023-05-15T09:25:33.475Z,8
2023-05-15T09:26:46.040Z,8
2023-05-15T09:28:03.046Z,6
2023-05-15T09:29:09.900Z,6
2023-05-15T09:30:19.464Z,7
2023-05-15T09:31:26.349Z,6
2023-05-15T09:32:32.949Z,7
2023-05-15T09:33:40.090Z,6
2023-05-15T09:34:46.970Z,6
2023-05-15T09:35:53.814Z,7
2023-05-15T09:37:00.562Z,6
2023-05-15T09:38:07.472Z,5
2023-05-15T09:39:14.320Z,4
2023-05-15T09:40:21.187Z,4
2023-05-15T09:41:28.057Z,5
2023-05-15T09:42:35.017Z,5
2023-05-15T09:46:32.791Z,5
2023-05-15T09:47:40.039Z,5
2023-05-15T09:48:47.345Z,5
2023-05-15T09:49:57.687Z,5
2023-05-15T09:51:05.013Z,4
2023-05-15T09:52:17.429Z,4
2023-05-15T09:53:24.867Z,15
2023-05-15T09:54:31.879Z,12
2023-05-15T09:55:39.061Z,6
2023-05-15T09:56:49.392Z,4
2023-05-15T09:57:56.757Z,4
2023-05-15T09:59:07.160Z,4
2023-05-15T10:00:19.475Z,7
2023-05-15T10:01:26.486Z,9
2023-05-15T10:02:47.246Z,6
2023-05-15T10:04:13.696Z,6
2023-05-15T10:05:26.039Z,5
2023-05-15T10:06:37.015Z,5
2023-05-15T10:07:47.531Z,5
2023-05-15T10:09:12.649Z,5
2023-05-15T10:10:19.744Z,4
2023-05-15T10:11:26.811Z,5
2023-05-15T10:12:39.956Z,6
2023-05-15T10:13:47.081Z,6
2023-05-15T10:14:54.593Z,3
2023-05-15T10:16:01.827Z,4
2023-05-15T10:17:09.228Z,5
2023-05-15T10:18:16.465Z,4
2023-05-15T10:19:24.033Z,4
2023-05-15T10:20:31.357Z,4
2023-05-15T10:21:38.930Z,5
2023-05-15T10:23:12.682Z,5
2023-05-15T10:24:20.079Z,4
2023-05-15T10:25:27.417Z,5
2023-05-15T10:26:34.700Z,4
2023-05-15T10:27:45.013Z,4
2023-05-15T10:28:52.367Z,4
2023-05-15T10:29:59.476Z,5
2023-05-15T10:31:06.802Z,4
2023-05-15T10:32:13.849Z,6
2023-05-15T10:33:21.223Z,5
2023-05-15T10:34:28.713Z,4
2023-05-15T10:35:43.079Z,4
2023-05-15T10:36:56.462Z,5
2023-05-15T10:38:06.005Z,4
2023-05-15T10:39:20.177Z,4
2023-05-15T10:40:39.259Z,3
2023-05-15T10:41:46.719Z,3
2023-05-15T10:42:53.780Z,5
2023-05-15T10:44:01.333Z,4
2023-05-15T10:45:08.671Z,4
2023-05-15T10:46:15.809Z,5
2023-05-15T10:47:23.086Z,5
2023-05-15T10:48:30.250Z,4
2023-05-15T10:50:01.393Z,4
2023-05-15T10:51:23.331Z,4
2023-05-15T10:52:39.295Z,5
2023-05-15T10:53:46.667Z,5
2023-05-15T10:55:01.440Z,5
2023-05-15T10:56:16.814Z,5
2023-05-15T10:57:23.482Z,4
2023-05-15T10:58:33.340Z,3
2023-05-15T10:59:40.827Z,3
2023-05-15T11:00:48.281Z,4
2023-05-15T11:01:56.038Z,3
2023-05-15T11:03:13.992Z,3
2023-05-15T11:04:21.866Z,4
2023-05-15T11:05:29.418Z,6
2023-05-15T11:06:36.351Z,4
2023-05-15T11:07:46.081Z,4
2023-05-15T11:09:03.431Z,3
2023-05-15T11:10:20.971Z,3
2023-05-15T11:11:31.094Z,4
2023-05-15T11:12:48.435Z,4
2023-05-15T11:13:58.976Z,4
2023-05-15T11:15:08.676Z,3
2023-05-15T11:16:16.530Z,3
2023-05-15T11:17:28.930Z,3
2023-05-15T11:18:36.506Z,4
2023-05-15T11:19:43.930Z,3
2023-05-15T11:20:53.907Z,3
2023-05-15T11:22:01.094Z,5
2023-05-15T11:23:11.235Z,4
2023-05-15T11:24:18.334Z,5
2023-05-15T11:25:25.549Z,3
2023-05-15T11:26:32.952Z,4
2023-05-15T11:27:40.190Z,5
2023-05-15T11:28:47.283Z,3
2023-05-15T11:29:54.576Z,2
2023-05-15T11:31:12.060Z,4
2023-05-15T11:32:19.391Z,3
2023-05-15T11:33:36.832Z,4
2023-05-15T11:34:44.025Z,3
2023-05-15T11:35:51.227Z,5
2023-05-15T11:37:01.292Z,4
2023-05-15T11:38:08.732Z,3
2023-05-15T11:39:15.757Z,3
2023-05-15T11:40:23.046Z,5
2023-05-15T11:41:30.015Z,4
2023-05-15T11:42:37.333Z,2
2023-05-15T11:43:44.912Z,4
2023-05-15T11:44:52.547Z,3
2023-05-15T11:45:59.682Z,3
2023-05-15T11:47:06.665Z,2
2023-05-15T11:48:13.730Z,4
2023-05-15T11:49:21.080Z,3
2023-05-15T11:50:28.298Z,3
2023-05-15T11:51:35.685Z,4
2023-05-15T11:52:42.736Z,4
2023-05-15T11:53:50.236Z,4
2023-05-15T11:54:57.329Z,4
2023-05-15T11:56:04.709Z,5
2023-05-15T11:57:11.814Z,9
2023-05-15T11:58:18.944Z,3
2023-05-15T11:59:26.369Z,4
2023-05-15T12:00:33.773Z,4
2023-05-15T12:01:41.216Z,3
2023-05-15T12:02:48.471Z,5
2023-05-15T12:03:55.779Z,2
2023-05-15T12:05:02.745Z,8
2023-05-15T12:07:08.943Z,8
2023-05-15T12:08:16.267Z,3
2023-05-15T12:09:23.517Z,3
2023-05-15T12:10:30.897Z,3
2023-05-15T12:11:38.145Z,4
2023-05-15T12:12:45.136Z,3
2023-05-15T12:13:52.348Z,4
2023-05-15T12:14:59.680Z,4
2023-05-15T12:16:07.053Z,3
2023-05-15T12:17:14.680Z,4
2023-05-15T12:18:21.858Z,3
2023-05-15T12:19:29.270Z,4
2023-05-15T12:20:36.647Z,3
2023-05-15T12:21:44.696Z,4
2023-05-15T12:22:52.020Z,4
2023-05-15T12:24:07.460Z,2
2023-05-15T12:25:30.654Z,2
2023-05-15T12:27:04.826Z,2
2023-05-15T12:28:13.443Z,3
2023-05-15T12:29:23.793Z,3
2023-05-15T12:30:31.139Z,4
2023-05-15T12:31:39.498Z,4
2023-05-15T12:33:02.879Z,5
2023-05-15T12:34:20.046Z,4
2023-05-15T12:35:37.794Z,4
2023-05-15T12:36:44.674Z,6
2023-05-15T12:37:51.557Z,5
2023-05-15T12:38:58.460Z,4
2023-05-15T12:40:08.783Z,3
2023-05-15T12:41:17.687Z,3
2023-05-15T12:42:25.774Z,4
2023-05-15T12:43:32.842Z,4
2023-05-15T12:44:41.535Z,3
2023-05-15T12:45:49.338Z,3
2023-05-15T12:46:56.819Z,2
2023-05-15T12:48:03.952Z,3
2023-05-15T12:49:11.338Z,3
2023-05-15T12:50:18.682Z,3
2023-05-15T12:51:25.940Z,3
2023-05-15T12:52:32.965Z,2
2023-05-15T12:53:40.565Z,4
2023-05-15T12:54:48.115Z,3
2023-05-15T12:55:55.768Z,4
2023-05-15T12:57:03.187Z,5
2023-05-15T12:58:10.291Z,2
2023-05-15T12:59:18.044Z,2
2023-05-15T13:00:27.717Z,2
2023-05-15T13:01:37.269Z,2
2023-05-15T13:02:44.363Z,3
2023-05-15T13:03:53.802Z,6
2023-05-15T13:05:00.622Z,3
2023-05-15T13:06:07.814Z,4
2023-05-15T13:07:14.835Z,4
2023-05-15T13:08:21.798Z,5
2023-05-15T13:09:28.947Z,3
2023-05-15T13:10:36.060Z,3
2023-05-15T13:11:43.039Z,3
2023-05-15T13:12:50.221Z,3
2023-05-15T13:13:57.437Z,3
2023-05-15T13:15:04.514Z,5
2023-05-15T13:16:11.847Z,3
2023-05-15T13:17:28.824Z,3
2023-05-15T13:18:37.186Z,3
2023-05-15T13:19:50.382Z,2
2023-05-15T13:21:01.413Z,4
2023-05-15T13:22:15.152Z,3
2023-05-15T13:23:24.093Z,4
2023-05-15T13:24:31.457Z,5
2023-05-15T13:25:38.828Z,5
2023-05-15T13:26:45.770Z,3
2023-05-15T13:27:52.871Z,4
2023-05-15T13:29:03.142Z,3
2023-05-15T13:30:10.209Z,4
2023-05-15T13:31:17.389Z,5
2023-05-15T13:32:24.328Z,5
2023-05-15T13:33:31.822Z,3
2023-05-15T13:34:39.226Z,5
2023-05-15T13:35:46.106Z,3
2023-05-15T13:36:53.306Z,7
2023-05-15T13:38:00.694Z,3
2023-05-15T13:39:08.182Z,6
2023-05-15T13:40:15.353Z,5
2023-05-15T13:41:22.392Z,3
2023-05-15T13:42:29.467Z,3
2023-05-15T13:43:36.723Z,6
2023-05-15T13:44:43.983Z,3
2023-05-15T13:45:51.237Z,6
2023-05-15T13:46:58.307Z,4
2023-05-15T13:48:23.165Z,4
2023-05-15T13:49:30.745Z,4
2023-05-15T13:50:38.101Z,4
2023-05-15T13:51:45.592Z,4
2023-05-15T13:52:53.146Z,4
2023-05-15T13:54:00.299Z,5
2023-05-15T13:55:07.323Z,7
2023-05-15T13:56:14.589Z,4
2023-05-15T13:57:21.843Z,4
2023-05-15T13:58:29.067Z,5
2023-05-15T13:59:36.232Z,5
2023-05-15T14:00:43.985Z,5
2023-05-15T14:01:50.982Z,5
2023-05-15T14:02:59.073Z,5
2023-05-15T14:04:06.543Z,4
2023-05-15T14:05:14.084Z,3
2023-05-15T14:06:21.234Z,4
2023-05-15T14:07:29.019Z,3
2023-05-15T14:08:36.837Z,6
2023-05-15T14:09:44.479Z,6
2023-05-15T14:10:51.610Z,5
2023-05-15T14:12:01.024Z,3
2023-05-15T14:13:10.156Z,6
2023-05-15T14:14:17.342Z,4
2023-05-15T14:15:27.995Z,3
2023-05-15T14:16:35.391Z,5
2023-05-15T14:17:42.793Z,5
2023-05-15T14:18:49.823Z,6
2023-05-15T14:19:56.819Z,10
2023-05-15T14:21:04.547Z,6
2023-05-15T14:22:11.782Z,6
2023-05-15T14:23:18.898Z,4
2023-05-15T14:24:26.166Z,4
2023-05-15T14:25:33.638Z,4
2023-05-15T14:26:41.093Z,6
2023-05-15T14:27:57.452Z,5
2023-05-15T14:29:04.962Z,5
2023-05-15T14:30:12.144Z,3
2023-05-15T14:31:19.614Z,4
2023-05-15T14:32:26.631Z,5
2023-05-15T14:33:33.941Z,4
2023-05-15T14:34:41.207Z,4
2023-05-15T14:35:48.187Z,3
2023-05-15T14:36:55.674Z,3
2023-05-15T14:38:02.910Z,3
2023-05-15T14:39:09.994Z,4
2023-05-15T14:40:17.414Z,4
2023-05-15T14:41:24.662Z,5
2023-05-15T14:42:31.890Z,4
2023-05-15T14:43:39.020Z,3
2023-05-15T14:44:46.246Z,5
2023-05-15T14:45:53.431Z,3
2023-05-15T14:47:00.373Z,4
2023-05-15T14:48:07.576Z,4
2023-05-15T14:49:14.810Z,4
2023-05-15T14:50:21.929Z,5
2023-05-15T14:51:29.165Z,3
2023-05-15T14:52:36.490Z,5
2023-05-15T14:53:46.692Z,5
2023-05-15T14:55:07.667Z,3
2023-05-15T14:56:08.487Z,3
2023-05-15T14:57:15.911Z,3
2023-05-15T14:58:23.133Z,3
2023-05-15T14:59:30.236Z,2
2023-05-15T15:00:37.530Z,7
2023-05-15T15:01:45.127Z,3
2023-05-15T15:02:52.295Z,4
2023-05-15T15:03:59.368Z,5
2023-05-15T15:05:06.754Z,5
2023-05-15T15:06:14.097Z,5
2023-05-15T15:07:22.758Z,5
2023-05-15T15:08:29.916Z,3
2023-05-15T15:09:37.135Z,5
2023-05-15T15:10:45.904Z,7
2023-05-15T15:11:53.380Z,3
2023-05-15T15:13:00.369Z,2
2023-05-15T15:14:07.569Z,4
2023-05-15T15:15:14.641Z,3
2023-05-15T15:16:21.695Z,3
2023-05-15T15:17:28.734Z,6
2023-05-15T15:18:35.837Z,4
2023-05-15T15:19:42.799Z,2
2023-05-15T15:20:49.859Z,3
2023-05-15T15:21:57.134Z,5
2023-05-15T15:23:04.151Z,3
2023-05-15T15:24:11.347Z,4
2023-05-15T15:25:18.587Z,4
2023-05-15T15:26:25.874Z,4
2023-05-15T15:27:33.147Z,2
2023-05-15T15:28:40.162Z,4
2023-05-15T15:29:47.323Z,3
2023-05-15T15:30:54.632Z,3
2023-05-15T15:32:01.900Z,5
2023-05-15T15:33:09.184Z,4
2023-05-15T15:34:16.446Z,4
2023-05-15T15:35:23.535Z,2
2023-05-15T15:36:31.820Z,4
2023-05-15T15:37:39.264Z,4
2023-05-15T15:38:46.510Z,5
2023-05-15T15:39:53.588Z,4
2023-05-15T15:41:00.770Z,5
2023-05-15T15:42:07.936Z,3
2023-05-15T15:43:15.160Z,4
2023-05-15T15:44:22.545Z,4
2023-05-15T15:45:29.759Z,3
2023-05-15T15:46:36.906Z,5
2023-05-15T15:47:44.240Z,4
2023-05-15T15:48:51.422Z,4
2023-05-15T15:49:58.648Z,4
2023-05-15T15:51:07.095Z,4
2023-05-15T15:52:14.098Z,3
2023-05-15T15:53:21.196Z,4
2023-05-15T15:54:28.360Z,4
2023-05-15T15:55:35.451Z,5
2023-05-15T15:56:42.536Z,4
2023-05-15T15:57:49.488Z,3
2023-05-15T15:58:56.784Z,3
2023-05-15T16:00:03.857Z,5
2023-05-15T16:01:11.406Z,5
2023-05-15T16:02:18.771Z,3
2023-05-15T16:03:25.913Z,3
2023-05-15T16:04:33.037Z,8
2023-05-15T16:05:39.951Z,4
2023-05-15T16:06:46.981Z,3
2023-05-15T16:07:54.249Z,4
2023-05-15T16:09:01.162Z,4
2023-05-15T16:10:12.142Z,3
2023-05-15T16:11:14.786Z,4
2023-05-15T16:12:21.507Z,4
2023-05-15T16:13:28.276Z,4
2023-05-15T16:14:35.057Z,4
2023-05-15T16:15:41.883Z,4
2023-05-15T16:16:48.735Z,3
2023-05-15T16:17:55.497Z,6
2023-05-15T16:19:02.411Z,2
2023-05-15T16:20:09.263Z,3
2023-05-15T16:21:16.165Z,4
2023-05-15T16:22:23.003Z,4
2023-05-15T16:23:29.688Z,4
2023-05-15T16:24:36.540Z,5
2023-05-15T16:25:43.398Z,6
2023-05-15T16:26:50.212Z,5
2023-05-15T16:27:57.108Z,7
2023-05-15T16:29:03.866Z,6
2023-05-15T16:30:10.636Z,7
2023-05-15T16:31:17.567Z,5
2023-05-15T16:32:26.488Z,6
2023-05-15T16:33:33.228Z,5
2023-05-15T16:34:40.109Z,5
2023-05-15T16:35:46.833Z,6
2023-05-15T16:36:53.579Z,7
2023-05-15T16:38:00.348Z,6
2023-05-15T16:39:07.191Z,6
2023-05-15T16:40:14.108Z,10
2023-05-15T16:41:20.837Z,10
2023-05-15T16:42:27.706Z,7
2023-05-15T16:43:34.436Z,6
2023-05-15T16:44:41.244Z,7
2023-05-15T16:45:48.072Z,4
2023-05-15T16:46:54.883Z,8
2023-05-15T16:48:01.737Z,4
2023-05-15T16:49:08.604Z,4
2023-05-15T16:50:15.470Z,6
2023-05-15T16:51:22.276Z,4
2023-05-15T16:52:29.043Z,5
2023-05-15T16:53:35.841Z,4
2023-05-15T16:54:42.582Z,5
2023-05-15T16:55:49.415Z,4
2023-05-15T16:56:56.314Z,3
2023-05-15T16:58:03.107Z,5
2023-05-15T16:59:09.861Z,3
2023-05-15T17:00:16.672Z,3